Time;durP1;ratioP1;P1;durP2;ratioP2;P2;SDS_P1;SDS_P2;PMS_P1;PMS_P2;Temp;Humidity;BMP_temperature;BMP_pressure;BME280_temperature;BME280_humidity;BME280_pressure;Samples;Min_cycle;Max_cycle;Signal;HPM_P1;HPM_P2
2023/05/03 00:02:11;;;;;;;29.42;19.38;;;7.00;79.70;;;;;;5022417;28;20049;-81
2023/05/03 00:04:37;;;;;;;5.38;4.05;;;7.10;79.60;;;;;;5022411;28;20541;-79
2023/05/03 00:07:03;;;;;;;8.32;6.75;;;7.10;79.50;;;;;;5022283;28;20130;-80
2023/05/03 00:09:29;;;;;;;10.38;6.90;;;7.10;79.90;;;;;;5036695;28;20047;-80
2023/05/03 00:11:55;;;;;;;8.30;3.35;;;7.10;80.00;;;;;;5035929;28;20048;-80
2023/05/03 00:14:20;;;;;;;5.95;4.38;;;7.20;80.20;;;;;;5035505;28;20037;-81
2023/05/03 00:16:46;;;;;;;8.55;5.85;;;7.20;80.00;;;;;;5036244;28;20355;-80
2023/05/03 00:19:12;;;;;;;7.00;5.22;;;7.30;79.90;;;;;;5036187;28;20041;-80
2023/05/03 00:21:37;;;;;;;7.30;3.58;;;7.30;79.60;;;;;;5018977;28;20049;-80
2023/05/03 00:24:04;;;;;;;6.70;3.25;;;7.30;79.60;;;;;;5035030;28;20553;-80
2023/05/03 00:26:29;;;;;;;4.80;2.45;;;7.30;79.60;;;;;;5035662;28;20474;-83
2023/05/03 00:28:55;;;;;;;4.70;2.58;;;7.30;79.60;;;;;;5018883;28;20052;-79
2023/05/03 00:31:21;;;;;;;5.32;2.78;;;7.30;79.60;;;;;;5002499;28;20056;-81
2023/05/03 00:33:46;;;;;;;16.40;11.18;;;7.30;79.60;;;;;;5035016;28;20108;-80
2023/05/03 00:36:14;;;;;;;6.90;3.28;;;7.40;79.80;;;;;;5002301;28;20124;-81
2023/05/03 00:38:40;;;;;;;6.35;2.80;;;7.40;79.70;;;;;;5019356;28;20379;-80
2023/05/03 00:41:09;;;;;;;7.20;3.30;;;7.40;79.60;;;;;;5015488;28;20037;-82
2023/05/03 00:43:35;;;;;;;5.78;2.95;;;7.40;79.70;;;;;;5015443;28;20075;-82
2023/05/03 00:46:05;;;;;;;4.25;2.60;;;7.40;79.70;;;;;;5014860;28;20156;-81
2023/05/03 00:48:32;;;;;;;15.25;9.02;;;7.40;79.70;;;;;;5015470;28;20057;-81
2023/05/03 00:50:59;;;;;;;14.43;9.57;;;7.40;80.10;;;;;;4999454;28;20049;-84
2023/05/03 00:53:26;;;;;;;12.48;7.80;;;7.50;79.90;;;;;;5015275;28;20049;-81
2023/05/03 00:55:52;;;;;;;20.33;13.73;;;7.50;80.20;;;;;;4998715;28;20046;-79
2023/05/03 00:58:19;;;;;;;7.97;5.47;;;7.50;80.00;;;;;;4998366;28;20061;-80
2023/05/03 01:00:46;;;;;;;9.77;3.75;;;7.50;79.80;;;;;;4999583;28;20429;-80
2023/05/03 01:03:12;;;;;;;8.13;2.90;;;7.50;80.00;;;;;;4982366;28;20042;-82
2023/05/03 01:06:07;;;;;;;7.40;3.20;;;7.40;79.80;;;;;;5014512;28;20042;-80
2023/05/03 01:08:43;;;;;;;;;;;7.50;79.90;;;;;;4998365;28;20496;-80
2023/05/03 01:11:17;;;;;;;;;;;7.50;79.90;;;;;;5015506;28;20302;-85
2023/05/03 01:13:57;;;;;;;4.47;2.80;;;7.50;80.10;;;;;;4998476;28;20297;-82
2023/05/03 01:16:30;;;;;;;4.95;2.53;;;7.50;79.50;;;;;;5015282;28;20038;-78
2023/05/03 01:19:02;;;;;;;5.38;2.78;;;7.50;79.50;;;;;;5015299;28;20052;-81
2023/05/03 01:21:29;;;;;;;5.68;3.53;;;7.50;79.40;;;;;;4998715;28;20078;-81
2023/05/03 01:24:15;;;;;;;12.52;3.33;;;7.60;79.40;;;;;;5014863;28;20049;-78
2023/05/03 01:26:41;;;;;;;6.60;2.78;;;7.60;79.20;;;;;;5014347;28;20042;-78
2023/05/03 01:29:06;;;;;;;4.85;2.92;;;7.50;79.20;;;;;;5014603;28;20041;-78
2023/05/03 01:31:41;;;;;;;5.35;3.28;;;7.50;79.20;;;;;;4997784;28;20037;-82
2023/05/03 01:34:14;;;;;;;4.05;3.22;;;7.50;79.20;;;;;;4998445;28;20132;-78
2023/05/03 01:36:43;;;;;;;8.05;2.95;;;7.50;79.00;;;;;;5014275;28;20126;-82
2023/05/03 01:39:23;;;;;;;6.53;3.40;;;7.60;79.10;;;;;;4998426;28;20057;-81
2023/05/03 01:41:52;;;;;;;6.10;3.15;;;7.50;79.20;;;;;;5014373;28;20034;-81
2023/05/03 01:44:19;;;;;;;6.57;3.00;;;7.50;79.20;;;;;;4998568;28;20082;-80
2023/05/03 01:46:46;;;;;;;4.90;3.55;;;7.50;79.10;;;;;;5014148;28;20504;-80
2023/05/03 01:49:12;;;;;;;4.43;2.85;;;7.50;79.20;;;;;;4997392;28;20132;-81
2023/05/03 01:51:38;;;;;;;6.03;3.35;;;7.50;79.30;;;;;;4997897;28;20041;-77
2023/05/03 01:54:05;;;;;;;8.60;3.63;;;7.50;79.20;;;;;;4997172;28;20049;-78
2023/05/03 01:56:32;;;;;;;5.43;3.15;;;7.50;79.30;;;;;;4997219;28;20408;-79
2023/05/03 01:58:58;;;;;;;6.82;3.15;;;7.50;79.40;;;;;;4997135;28;20049;-79
2023/05/03 02:01:24;;;;;;;7.35;3.25;;;7.50;79.50;;;;;;4997382;28;20034;-81
2023/05/03 02:03:49;;;;;;;4.38;3.30;;;7.50;79.70;;;;;;4997633;28;20045;-81
2023/05/03 02:06:15;;;;;;;4.72;3.35;;;7.50;79.80;;;;;;4997404;28;20050;-80
2023/05/03 02:08:41;;;;;;;5.82;3.30;;;7.50;79.80;;;;;;4997808;28;20041;-80
2023/05/03 02:11:07;;;;;;;8.13;3.40;;;7.50;79.60;;;;;;4997513;28;20044;-79
2023/05/03 02:13:33;;;;;;;4.88;3.00;;;7.50;79.60;;;;;;4997752;28;20049;-85
2023/05/03 02:15:59;;;;;;;4.00;3.38;;;7.50;79.70;;;;;;5013758;28;20092;-80
2023/05/03 02:18:26;;;;;;;5.63;3.40;;;7.50;79.80;;;;;;5012938;28;20042;-81
2023/05/03 02:20:51;;;;;;;6.10;3.60;;;7.50;80.00;;;;;;5012940;28;20050;-80
2023/05/03 02:23:17;;;;;;;7.03;3.65;;;7.40;80.00;;;;;;5013384;28;20046;-80
2023/05/03 02:25:43;;;;;;;3.80;3.38;;;7.40;80.20;;;;;;5013882;28;20462;-82
2023/05/03 02:28:08;;;;;;;5.82;3.60;;;7.40;80.40;;;;;;5013427;28;20462;-80
2023/05/03 02:30:34;;;;;;;5.05;3.40;;;7.40;80.40;;;;;;4997514;28;20038;-82
2023/05/03 02:33:00;;;;;;;5.15;3.47;;;7.40;80.60;;;;;;5012753;28;20044;-81
2023/05/03 02:35:26;;;;;;;5.03;3.20;;;7.30;80.60;;;;;;4996419;28;20061;-81
2023/05/03 02:37:52;;;;;;;6.85;4.25;;;7.40;80.50;;;;;;5012836;28;20482;-82
2023/05/03 02:40:18;;;;;;;3.95;2.85;;;7.40;80.40;;;;;;4980588;28;20180;-81
2023/05/03 02:42:43;;;;;;;6.95;2.92;;;7.40;80.40;;;;;;5013259;28;20034;-82
2023/05/03 02:45:09;;;;;;;7.90;3.03;;;7.40;80.70;;;;;;5013487;28;20478;-81
2023/05/03 02:47:35;;;;;;;4.85;2.92;;;7.40;80.70;;;;;;5012906;28;20085;-82
2023/05/03 02:50:01;;;;;;;4.57;2.90;;;7.50;80.50;;;;;;5012856;28;20073;-82
2023/05/03 02:52:26;;;;;;;3.28;2.88;;;7.50;80.70;;;;;;5012728;28;20048;-81
2023/05/03 02:54:52;;;;;;;5.97;3.05;;;7.50;81.00;;;;;;4996114;28;20053;-83
2023/05/03 02:57:18;;;;;;;5.78;3.20;;;7.50;80.90;;;;;;5012223;28;20061;-79
2023/05/03 02:59:43;;;;;;;4.93;3.08;;;7.50;81.00;;;;;;4996502;28;20049;-85
2023/05/03 03:02:09;;;;;;;4.40;3.30;;;7.50;81.40;;;;;;5013136;28;20042;-81
2023/05/03 03:04:35;;;;;;;5.15;3.10;;;7.50;81.20;;;;;;5012324;28;20042;-80
2023/05/03 03:07:00;;;;;;;6.47;2.97;;;7.50;81.60;;;;;;4996253;28;20042;-82
2023/05/03 03:09:26;;;;;;;4.45;3.05;;;7.50;81.90;;;;;;4996644;28;20046;-81
2023/05/03 03:11:52;;;;;;;3.60;2.60;;;7.50;81.20;;;;;;4996486;28;20100;-82
2023/05/03 03:14:17;;;;;;;3.33;2.80;;;7.50;81.10;;;;;;5012818;28;20054;-79
2023/05/03 03:16:45;;;;;;;3.53;1.98;;;7.50;80.90;;;;;;5012437;28;20042;-81
2023/05/03 03:19:11;;;;;;;3.75;2.45;;;7.50;80.70;;;;;;5012631;28;20449;-81
2023/05/03 03:21:36;;;;;;;4.85;2.50;;;7.50;80.70;;;;;;4996977;28;20042;-79
2023/05/03 03:24:05;;;;;;;4.45;2.35;;;7.50;80.70;;;;;;5012468;28;20459;-79
2023/05/03 03:26:31;;;;;;;4.68;2.28;;;7.50;80.60;;;;;;5012693;28;20046;-78
2023/05/03 03:28:57;;;;;;;3.88;2.40;;;7.50;80.50;;;;;;5012496;28;20048;-79
2023/05/03 03:31:24;;;;;;;3.50;2.70;;;7.50;80.40;;;;;;4996251;28;20121;-79
2023/05/03 03:33:50;;;;;;;8.52;2.80;;;7.50;80.30;;;;;;4996026;28;20082;-78
2023/05/03 03:36:15;;;;;;;6.65;3.17;;;7.60;80.30;;;;;;5012732;28;20695;-80
2023/05/03 03:38:41;;;;;;;4.47;2.55;;;7.50;80.50;;;;;;5012584;28;20456;-85
2023/05/03 03:41:07;;;;;;;6.25;2.90;;;7.50;80.50;;;;;;5013012;28;20120;-81
2023/05/03 03:43:32;;;;;;;6.53;3.03;;;7.60;80.50;;;;;;4996246;28;20042;-82
2023/05/03 03:45:58;;;;;;;7.03;3.42;;;7.50;80.30;;;;;;4998502;28;20038;-81
2023/05/03 03:48:24;;;;;;;4.00;2.58;;;7.60;80.20;;;;;;5016416;28;20077;-81
2023/05/03 03:50:50;;;;;;;4.93;2.80;;;7.50;80.30;;;;;;5000487;28;20079;-81
2023/05/03 03:53:16;;;;;;;4.07;3.20;;;7.60;80.30;;;;;;4999397;28;20082;-79
2023/05/03 03:55:42;;;;;;;3.92;2.75;;;7.60;80.40;;;;;;4999602;28;20045;-78
2023/05/03 03:58:08;;;;;;;4.85;2.92;;;7.50;80.20;;;;;;4998815;28;20061;-80
2023/05/03 04:00:35;;;;;;;6.57;2.88;;;7.60;80.10;;;;;;4998935;28;20050;-82
2023/05/03 04:03:01;;;;;;;3.97;2.28;;;7.50;79.90;;;;;;4999179;28;20050;-82
2023/05/03 04:05:26;;;;;;;5.53;2.38;;;7.50;79.90;;;;;;5015708;28;20441;-80
2023/05/03 04:07:52;;;;;;;3.88;2.88;;;7.50;79.90;;;;;;4999606;28;20042;-82
2023/05/03 04:10:18;;;;;;;4.38;2.22;;;7.50;79.80;;;;;;4999343;28;20101;-81
2023/05/03 04:12:44;;;;;;;3.33;1.77;;;7.60;79.80;;;;;;5015730;28;20048;-83
2023/05/03 04:15:10;;;;;;;4.53;2.58;;;7.60;79.90;;;;;;5015795;28;20042;-81
2023/05/03 04:17:36;;;;;;;4.65;2.40;;;7.60;79.80;;;;;;5015776;28;20038;-79
2023/05/03 04:20:22;;;;;;;4.93;2.60;;;7.60;79.80;;;;;;5015726;28;20438;-79
2023/05/03 04:22:48;;;;;;;5.80;2.33;;;7.60;80.10;;;;;;4999439;28;20096;-79
2023/05/03 04:25:15;;;;;;;4.00;2.35;;;7.60;80.30;;;;;;5016194;28;20045;-82
2023/05/03 04:27:43;;;;;;;4.03;2.63;;;7.50;80.20;;;;;;5015300;28;20046;-78
2023/05/03 04:30:09;;;;;;;4.13;2.40;;;7.60;80.00;;;;;;5015687;28;20478;-80
2023/05/03 04:32:36;;;;;;;6.85;2.67;;;7.60;79.90;;;;;;4999018;28;20046;-80
2023/05/03 04:35:09;;;;;;;7.10;2.33;;;7.60;80.00;;;;;;5015237;28;20129;-82
2023/05/03 04:37:39;;;;;;;4.25;2.10;;;7.60;80.00;;;;;;4998890;28;20184;-81
2023/05/03 04:40:07;;;;;;;2.85;2.00;;;7.70;79.90;;;;;;5015342;28;20049;-81
2023/05/03 04:42:34;;;;;;;2.58;1.77;;;7.60;79.90;;;;;;5015224;28;20061;-82
2023/05/03 04:45:02;;;;;;;5.53;2.20;;;7.60;79.80;;;;;;4999062;28;20052;-80
2023/05/03 04:47:28;;;;;;;4.47;2.05;;;7.60;79.60;;;;;;5015069;28;20052;-85
2023/05/03 04:49:54;;;;;;;3.65;1.90;;;7.60;79.40;;;;;;5015479;28;20378;-82
2023/05/03 04:52:20;;;;;;;4.13;1.92;;;7.60;79.30;;;;;;4999340;28;20161;-79
2023/05/03 04:54:46;;;;;;;4.20;2.05;;;7.70;79.00;;;;;;5022317;28;20033;-79
2023/05/03 04:57:12;;;;;;;4.78;2.38;;;7.70;78.90;;;;;;5039963;28;20050;-80
2023/05/03 04:59:39;;;;;;;3.50;1.88;;;7.80;79.10;;;;;;5040684;28;20065;-78
2023/05/03 05:02:05;;;;;;;5.43;2.05;;;7.80;79.00;;;;;;5039738;28;20030;-79
2023/05/03 05:04:31;;;;;;;4.75;1.85;;;7.80;78.90;;;;;;5021583;28;20042;-81
2023/05/03 05:06:58;;;;;;;2.75;1.92;;;7.80;78.70;;;;;;5021167;28;20045;-81
2023/05/03 05:09:26;;;;;;;4.25;2.50;;;7.80;78.80;;;;;;5008764;28;20042;-80
2023/05/03 05:11:52;;;;;;;6.97;2.40;;;7.80;78.60;;;;;;5015649;28;20045;-82
2023/05/03 05:14:18;;;;;;;5.00;2.30;;;7.80;78.70;;;;;;4998549;28;20042;-81
2023/05/03 05:16:44;;;;;;;3.05;2.35;;;7.90;78.90;;;;;;5015615;28;20044;-84
2023/05/03 05:19:10;;;;;;;4.60;2.30;;;7.90;78.70;;;;;;5015000;28;20038;-78
2023/05/03 05:21:37;;;;;;;4.15;2.28;;;7.90;78.50;;;;;;4999100;28;20124;-79
2023/05/03 05:24:03;;;;;;;3.40;2.17;;;7.90;78.60;;;;;;4998475;28;20052;-82
2023/05/03 05:26:29;;;;;;;4.78;2.10;;;7.90;78.20;;;;;;4998069;28;20041;-79
2023/05/03 05:28:54;;;;;;;5.20;2.17;;;8.00;77.80;;;;;;4998365;28;20476;-82
2023/05/03 05:31:20;;;;;;;5.13;2.10;;;8.00;78.00;;;;;;5014399;28;20048;-82
2023/05/03 05:33:46;;;;;;;4.95;2.35;;;8.00;77.90;;;;;;5015109;28;20129;-83
2023/05/03 05:36:13;;;;;;;6.15;2.17;;;8.00;78.20;;;;;;4997856;28;20466;-81
2023/05/03 05:38:39;;;;;;;4.70;2.53;;;8.10;78.10;;;;;;4998562;28;20455;-82
2023/05/03 05:41:05;;;;;;;5.93;2.17;;;8.10;78.20;;;;;;4997994;28;20434;-80
2023/05/03 05:43:31;;;;;;;5.32;2.20;;;8.10;78.20;;;;;;4997862;28;20042;-82
2023/05/03 05:45:57;;;;;;;5.03;2.00;;;8.10;76.90;;;;;;5014818;28;20042;-80
2023/05/03 05:48:23;;;;;;;5.65;2.72;;;8.10;77.40;;;;;;4998216;28;20096;-81
2023/05/03 05:50:48;;;;;;;5.63;2.20;;;8.20;77.40;;;;;;4997907;28;20398;-81
2023/05/03 05:53:14;;;;;;;6.35;2.17;;;8.20;77.50;;;;;;5014228;28;20038;-80
2023/05/03 05:55:40;;;;;;;3.03;1.88;;;8.30;77.10;;;;;;5014473;28;20513;-83
2023/05/03 05:58:06;;;;;;;4.05;1.50;;;8.30;75.80;;;;;;4997498;28;20046;-81
2023/05/03 06:00:31;;;;;;;5.50;1.48;;;8.40;75.40;;;;;;4997602;28;20053;-84
2023/05/03 06:02:57;;;;;;;4.25;1.83;;;8.40;74.50;;;;;;5013987;28;20038;-83
2023/05/03 06:05:23;;;;;;;5.25;1.52;;;8.40;74.30;;;;;;5014090;28;20045;-83
2023/05/03 06:07:49;;;;;;;3.67;1.52;;;8.50;75.30;;;;;;5013288;28;20046;-81
2023/05/03 06:10:15;;;;;;;7.30;1.65;;;8.50;75.30;;;;;;5013933;28;20073;-83
2023/05/03 06:12:40;;;;;;;3.60;1.52;;;8.60;75.30;;;;;;5013898;28;20053;-82
2023/05/03 06:15:07;;;;;;;5.55;1.38;;;8.60;75.40;;;;;;4997672;28;20053;-80
2023/05/03 06:17:33;;;;;;;3.60;1.42;;;8.70;75.50;;;;;;4981106;28;20038;-80
2023/05/03 06:19:59;;;;;;;3.08;1.40;;;8.80;75.50;;;;;;5013857;28;20053;-84
2023/05/03 06:22:25;;;;;;;5.10;1.30;;;8.80;75.10;;;;;;4997469;28;20037;-82
2023/05/03 06:24:51;;;;;;;3.05;1.40;;;8.80;74.00;;;;;;4997376;28;20176;-83
2023/05/03 06:27:17;;;;;;;3.40;1.58;;;8.90;73.40;;;;;;4997058;28;20042;-79
2023/05/03 06:29:43;;;;;;;4.10;1.90;;;9.00;74.30;;;;;;5013752;28;20046;-80
2023/05/03 06:32:09;;;;;;;7.07;1.73;;;9.00;74.10;;;;;;5013608;28;20053;-82
2023/05/03 06:34:36;;;;;;;3.40;1.50;;;9.00;74.10;;;;;;5013376;28;20103;-83
2023/05/03 06:37:02;;;;;;;4.30;1.50;;;9.10;73.50;;;;;;4980832;28;20054;-83
2023/05/03 06:39:28;;;;;;;5.45;1.55;;;9.10;73.80;;;;;;5029424;28;20117;-83
2023/05/03 06:41:53;;;;;;;3.15;1.30;;;9.10;73.50;;;;;;5032944;28;20127;-79
2023/05/03 06:44:19;;;;;;;4.55;1.30;;;9.20;73.40;;;;;;5017309;28;20045;-82
2023/05/03 06:46:45;;;;;;;3.40;2.08;;;9.20;72.90;;;;;;5032595;28;20444;-82
2023/05/03 06:49:10;;;;;;;3.67;1.30;;;9.30;72.60;;;;;;5016260;28;20043;-81
2023/05/03 06:51:36;;;;;;;6.75;1.52;;;9.40;72.90;;;;;;5016130;28;20433;-83
2023/05/03 06:54:05;;;;;;;4.70;1.55;;;9.40;72.10;;;;;;5032781;28;20045;-81
2023/05/03 06:56:37;;;;;;;6.03;1.55;;;9.50;72.30;;;;;;5032704;28;20037;-80
2023/05/03 06:59:03;;;;;;;3.65;1.35;;;9.50;71.90;;;;;;5032654;28;20089;-79
2023/05/03 07:01:30;;;;;;;3.80;1.42;;;9.60;71.70;;;;;;5016302;28;20077;-82
2023/05/03 07:03:56;;;;;;;5.60;1.42;;;9.60;71.10;;;;;;5016045;28;20049;-78
2023/05/03 07:06:24;;;;;;;3.42;1.27;;;9.70;70.50;;;;;;5032507;28;20045;-80
2023/05/03 07:08:51;;;;;;;5.72;1.20;;;9.70;69.90;;;;;;5032423;28;20133;-81
2023/05/03 07:11:24;;;;;;;2.65;1.20;;;9.70;69.30;;;;;;5032419;28;20042;-82
2023/05/03 07:13:50;;;;;;;2.45;1.05;;;9.80;69.40;;;;;;5015730;28;20042;-81
2023/05/03 07:16:17;;;;;;;4.38;1.30;;;9.80;68.90;;;;;;5032250;28;20038;-83
2023/05/03 07:18:42;;;;;;;3.20;1.23;;;9.80;69.20;;;;;;5032768;28;20053;-80
2023/05/03 07:21:08;;;;;;;3.75;1.63;;;9.90;68.90;;;;;;5019633;28;20041;-81
2023/05/03 07:23:34;;;;;;;2.25;1.10;;;10.00;68.90;;;;;;5036256;28;20041;-81
2023/05/03 07:25:59;;;;;;;3.10;2.10;;;10.00;69.00;;;;;;5036078;28;20080;-82
2023/05/03 07:28:25;;;;;;;3.78;1.35;;;10.00;69.00;;;;;;5036623;28;20071;-80
2023/05/03 07:30:51;;;;;;;2.60;1.30;;;10.00;67.00;;;;;;5036342;28;20048;-82
2023/05/03 07:33:17;;;;;;;5.43;1.45;;;10.10;68.10;;;;;;5036068;28;20041;-82
2023/05/03 07:35:45;;;;;;;5.50;1.30;;;10.10;68.90;;;;;;5019624;28;20046;-83
2023/05/03 07:38:12;;;;;;;5.72;1.20;;;10.20;68.50;;;;;;5019594;28;20429;-80
2023/05/03 07:40:38;;;;;;;5.55;1.50;;;10.20;68.30;;;;;;5036224;28;20060;-81
2023/05/03 07:43:04;;;;;;;5.13;1.83;;;10.30;68.30;;;;;;5036396;28;20045;-82
2023/05/03 07:45:29;;;;;;;3.08;1.88;;;10.30;68.20;;;;;;5036219;28;20128;-82
2023/05/03 07:47:55;;;;;;;3.47;1.27;;;10.30;68.10;;;;;;5019426;28;20072;-85
2023/05/03 07:50:22;;;;;;;3.30;1.30;;;10.40;68.60;;;;;;5036071;28;20041;-83
2023/05/03 07:52:50;;;;;;;4.45;1.65;;;10.40;68.60;;;;;;5019338;28;20041;-81
2023/05/03 07:55:18;;;;;;;5.00;1.85;;;10.30;68.00;;;;;;5019829;28;20047;-82
2023/05/03 07:57:44;;;;;;;3.17;1.45;;;10.40;67.60;;;;;;5035656;28;20057;-79
2023/05/03 08:00:11;;;;;;;4.97;1.60;;;10.40;68.40;;;;;;5035960;28;20033;-83
2023/05/03 08:02:37;;;;;;;4.53;1.60;;;10.40;68.40;;;;;;5036402;28;20417;-82
2023/05/03 08:05:07;;;;;;;3.20;1.58;;;10.40;68.20;;;;;;5036753;28;20049;-80
2023/05/03 08:07:32;;;;;;;5.82;1.80;;;10.50;68.70;;;;;;5019819;28;20132;-81
2023/05/03 08:09:59;;;;;;;4.93;1.50;;;10.50;68.80;;;;;;5036699;28;20184;-81
2023/05/03 08:12:25;;;;;;;5.88;1.60;;;10.50;67.80;;;;;;5036775;28;20045;-82
2023/05/03 08:14:54;;;;;;;5.68;1.85;;;10.50;68.60;;;;;;5036248;28;20135;-81
2023/05/03 08:17:22;;;;;;;2.65;1.25;;;10.50;68.90;;;;;;5035868;28;20034;-80
2023/05/03 08:19:51;;;;;;;4.13;1.52;;;10.60;68.90;;;;;;5036005;28;20064;-81
2023/05/03 08:22:17;;;;;;;4.28;2.00;;;10.60;68.50;;;;;;5035637;28;20044;-79
2023/05/03 08:24:43;;;;;;;3.42;1.58;;;10.60;68.60;;;;;;5035496;28;20041;-79
2023/05/03 08:27:09;;;;;;;2.95;1.40;;;10.70;68.70;;;;;;5035934;28;20124;-80
2023/05/03 08:29:38;;;;;;;7.47;2.47;;;10.70;68.80;;;;;;5036122;28;20120;-80
2023/05/03 08:32:04;;;;;;;3.92;1.45;;;10.70;68.50;;;;;;5034666;28;20048;-79
2023/05/03 08:34:31;;;;;;;4.93;1.40;;;10.70;67.90;;;;;;5035593;28;20514;-81
2023/05/03 08:36:56;;;;;;;5.65;1.92;;;10.80;67.70;;;;;;5035360;28;20041;-82
2023/05/03 08:39:26;;;;;;;3.28;1.63;;;10.80;67.90;;;;;;5018415;28;20448;-80
2023/05/03 08:41:55;;;;;;;4.55;1.75;;;10.80;68.00;;;;;;5018848;28;20041;-82
2023/05/03 08:44:22;;;;;;;5.05;1.58;;;10.80;68.30;;;;;;5036304;28;20045;-79
2023/05/03 08:46:51;;;;;;;3.15;1.27;;;10.80;68.40;;;;;;5034933;28;20052;-79
2023/05/03 08:49:17;;;;;;;2.30;1.20;;;10.80;68.40;;;;;;5018742;28;20042;-80
2023/05/03 08:51:48;;;;;;;2.40;1.20;;;10.80;68.10;;;;;;5035362;28;20041;-81
2023/05/03 08:54:16;;;;;;;7.53;2.10;;;10.80;68.00;;;;;;5018201;28;20041;-82
2023/05/03 08:56:43;;;;;;;5.90;1.85;;;10.80;67.80;;;;;;5034828;28;20052;-78
2023/05/03 08:59:15;;;;;;;6.32;2.38;;;10.70;68.20;;;;;;5035114;28;20052;-77
2023/05/03 09:01:42;;;;;;;4.25;1.27;;;10.70;68.30;;;;;;5036188;28;20053;-82
2023/05/03 09:04:09;;;;;;;3.97;1.52;;;10.70;68.40;;;;;;5035483;28;20497;-79
2023/05/03 09:06:35;;;;;;;2.90;1.50;;;10.70;68.00;;;;;;5018056;28;20041;-80
2023/05/03 09:09:07;;;;;;;5.55;1.90;;;10.70;68.70;;;;;;5018141;28;20045;-81
2023/05/03 09:11:34;;;;;;;5.78;1.70;;;10.80;69.00;;;;;;5034577;28;20476;-79
2023/05/03 09:14:11;;;;;;;2.63;1.38;;;10.80;68.80;;;;;;5018256;28;20103;-78
2023/05/03 09:16:39;;;;;;;5.28;1.88;;;10.80;69.00;;;;;;5034423;28;20099;-79
2023/05/03 09:19:08;;;;;;;3.40;1.60;;;10.80;68.90;;;;;;5034398;28;20044;-79
2023/05/03 09:21:35;;;;;;;5.95;1.80;;;10.80;69.20;;;;;;5034512;28;20389;-80
2023/05/03 09:24:04;;;;;;;8.00;1.90;;;10.80;69.70;;;;;;5034113;28;20037;-79
2023/05/03 09:26:31;;;;;;;10.05;2.53;;;10.90;70.00;;;;;;5034257;28;20903;-79
2023/05/03 09:28:59;;;;;;;4.25;1.63;;;11.00;70.10;;;;;;5034032;28;20056;-80
2023/05/03 09:31:26;;;;;;;4.60;1.50;;;10.90;69.90;;;;;;5034088;28;20041;-80
2023/05/03 09:33:52;;;;;;;4.50;1.48;;;10.90;68.70;;;;;;5033941;28;20041;-80
2023/05/03 09:36:18;;;;;;;6.05;1.80;;;10.90;69.20;;;;;;5034275;28;20677;-80
2023/05/03 09:38:43;;;;;;;3.58;1.63;;;10.90;68.70;;;;;;5017523;28;20037;-81
2023/05/03 09:41:12;;;;;;;3.72;2.03;;;10.90;69.00;;;;;;5033807;28;20083;-79
2023/05/03 09:43:49;;;;;;;3.78;2.15;;;11.00;69.00;;;;;;5033953;28;20038;-79
2023/05/03 09:46:15;;;;;;;4.03;1.90;;;11.00;68.40;;;;;;5033756;28;20045;-80
2023/05/03 09:48:41;;;;;;;6.25;1.70;;;11.00;68.30;;;;;;5033538;28;20041;-79
2023/05/03 09:51:08;;;;;;;6.00;1.92;;;11.00;68.40;;;;;;5033880;28;20044;-80
2023/05/03 09:53:35;;;;;;;5.35;1.50;;;11.00;68.60;;;;;;5017142;28;20045;-81
2023/05/03 09:56:11;;;;;;;5.38;1.50;;;11.00;68.10;;;;;;5017611;28;20490;-81
2023/05/03 09:58:38;;;;;;;4.60;2.10;;;11.00;68.00;;;;;;5017178;28;20049;-80
2023/05/03 10:01:04;;;;;;;3.20;1.73;;;11.00;68.00;;;;;;5034045;28;20037;-83
2023/05/03 10:03:46;;;;;;;2.58;1.70;;;11.10;68.30;;;;;;5033530;28;20042;-81
2023/05/03 10:06:36;;;;;;;3.08;1.60;;;11.10;68.10;;;;;;5017079;28;20094;-81
2023/05/03 10:09:19;;;;;;;5.50;2.00;;;11.10;68.30;;;;;;5030348;28;20050;-83
2023/05/03 10:11:59;;;;;;;4.20;1.92;;;11.20;68.50;;;;;;5017419;28;20045;-81
2023/05/03 10:14:25;;;;;;;5.45;2.13;;;11.20;68.20;;;;;;5016702;28;20047;-82
2023/05/03 10:17:07;;;;;;;7.40;2.00;;;11.30;68.10;;;;;;5015163;28;20102;-81
2023/05/03 10:19:39;;;;;;;4.75;1.88;;;11.30;67.50;;;;;;5014419;28;20043;-82
2023/05/03 10:22:07;;;;;;;4.07;2.10;;;11.30;67.20;;;;;;5015083;28;20033;-81
2023/05/03 10:24:58;;;;;;;6.25;2.10;;;11.30;67.10;;;;;;5015733;28;20037;-82
2023/05/03 10:27:35;;;;;;;3.78;2.03;;;11.40;67.60;;;;;;5031378;28;20053;-81
2023/05/03 10:30:01;;;;;;;3.20;1.90;;;11.50;67.50;;;;;;5015439;28;20060;-81
2023/05/03 10:32:34;;;;;;;3.58;2.20;;;11.50;67.60;;;;;;5031486;28;20490;-81
2023/05/03 10:35:06;;;;;;;3.35;1.92;;;11.60;66.60;;;;;;5031598;28;20045;-82
2023/05/03 10:37:33;;;;;;;2.92;1.60;;;11.70;66.80;;;;;;5015821;28;20045;-82
2023/05/03 10:40:13;;;;;;;3.35;2.03;;;11.80;67.10;;;;;;5015462;28;20473;-80
2023/05/03 10:42:49;;;;;;;2.95;1.70;;;11.90;66.80;;;;;;5032082;28;20042;-81
2023/05/03 10:45:25;;;;;;;3.45;1.60;;;11.90;66.10;;;;;;5015462;28;20489;-81
2023/05/03 10:48:09;;;;;;;4.25;1.90;;;12.00;65.70;;;;;;5031741;28;20049;-82
2023/05/03 10:50:36;;;;;;;6.55;1.55;;;12.00;65.80;;;;;;5031641;28;20049;-82
2023/05/03 10:53:01;;;;;;;7.65;1.90;;;12.10;65.10;;;;;;4991871;28;20681;-80
2023/05/03 10:55:27;;;;;;;2.95;1.88;;;12.10;65.60;;;;;;5008666;28;20041;-83
2023/05/03 10:57:57;;;;;;;2.65;1.35;;;12.20;65.20;;;;;;5011640;28;20082;-82
2023/05/03 11:00:30;;;;;;;5.47;2.38;;;12.20;64.60;;;;;;5011906;28;20098;-82
2023/05/03 11:03:10;;;;;;;5.93;1.92;;;12.30;64.90;;;;;;5011946;28;20037;-81
2023/05/03 11:05:37;;;;;;;4.20;1.65;;;12.40;65.20;;;;;;4995894;28;20509;-80
2023/05/03 11:08:13;;;;;;;5.95;2.35;;;12.50;65.10;;;;;;5011888;28;20050;-81
2023/05/03 11:10:48;;;;;;;4.35;2.05;;;12.60;64.80;;;;;;4999203;28;20049;-77
2023/05/03 11:13:15;;;;;;;5.18;2.22;;;12.50;63.80;;;;;;5012617;28;20077;-78
2023/05/03 11:15:41;;;;;;;5.38;1.73;;;12.60;64.30;;;;;;4995698;28;20064;-79
2023/05/03 11:18:10;;;;;;;2.08;1.55;;;12.70;64.00;;;;;;4995431;28;20053;-82
2023/05/03 11:20:35;;;;;;;4.28;2.05;;;12.70;63.80;;;;;;4995504;28;20096;-83
2023/05/03 11:23:02;;;;;;;5.38;1.90;;;12.90;63.40;;;;;;4995818;28;20038;-82
2023/05/03 11:25:28;;;;;;;6.88;2.55;;;12.90;62.30;;;;;;4995459;28;20078;-81
2023/05/03 11:27:54;;;;;;;4.35;2.10;;;13.00;61.90;;;;;;4995386;28;20584;-82
2023/05/03 11:30:20;;;;;;;3.17;2.22;;;13.00;62.70;;;;;;4995351;28;20124;-83
2023/05/03 11:32:46;;;;;;;3.28;2.03;;;13.00;62.40;;;;;;4979133;28;20089;-80
2023/05/03 11:35:14;;;;;;;3.90;1.75;;;13.00;62.10;;;;;;4995067;28;20042;-82
2023/05/03 11:37:41;;;;;;;2.13;1.80;;;13.10;62.70;;;;;;5011454;28;20076;-82
2023/05/03 11:40:14;;;;;;;4.05;1.75;;;13.20;62.80;;;;;;5011894;28;20096;-81
2023/05/03 11:42:57;;;;;;;3.50;1.83;;;13.30;62.50;;;;;;4995460;28;20054;-80
2023/05/03 11:45:31;;;;;;;7.40;2.10;;;13.30;61.80;;;;;;5011329;28;20045;-80
2023/05/03 11:47:58;;;;;;;;;;;13.50;61.90;;;;;;4995544;28;20046;-81
2023/05/03 11:50:46;;;;;;;4.18;1.65;;;13.40;57.60;;;;;;4995156;28;19924;-81
2023/05/03 11:53:17;;;;;;;3.40;1.73;;;13.50;61.80;;;;;;5011944;28;20047;-79
2023/05/03 11:55:46;;;;;;;2.88;1.67;;;13.60;62.00;;;;;;5000244;28;20121;-81
2023/05/03 11:58:17;;;;;;;5.18;1.95;;;13.50;60.40;;;;;;4975436;28;20503;-81
2023/05/03 12:00:48;;;;;;;3.47;1.67;;;13.50;61.10;;;;;;4976024;28;20077;-82
2023/05/03 12:03:31;;;;;;;5.60;1.70;;;13.50;61.30;;;;;;4992183;28;20030;-80
2023/05/03 12:05:58;;;;;;;4.15;1.63;;;13.50;61.20;;;;;;4960448;28;20042;-81
2023/05/03 12:08:28;;;;;;;2.83;1.60;;;13.70;61.50;;;;;;4963114;28;20038;-81
2023/05/03 12:10:55;;;;;;;3.47;1.60;;;13.60;59.40;;;;;;4995802;28;20049;-80
2023/05/03 12:13:27;;;;;;;5.53;1.80;;;13.70;60.50;;;;;;4995577;28;20074;-81
2023/05/03 12:16:01;;;;;;;3.72;1.58;;;13.90;60.60;;;;;;4962821;28;20050;-81
2023/05/03 12:18:27;;;;;;;2.78;1.48;;;14.00;60.80;;;;;;4995494;28;20095;-80
2023/05/03 12:20:57;;;;;;;4.22;1.50;;;14.00;59.90;;;;;;4995153;28;20046;-80
2023/05/03 12:23:23;;;;;;;4.13;1.50;;;14.30;60.30;;;;;;4962691;28;20097;-81
2023/05/03 12:25:50;;;;;;;3.17;1.88;;;14.30;59.80;;;;;;4978751;28;20088;-80
2023/05/03 12:28:17;;;;;;;3.72;1.90;;;14.40;57.30;;;;;;4962753;28;20487;-79
2023/05/03 12:30:43;;;;;;;5.05;1.50;;;14.50;55.70;;;;;;4994980;28;20050;-80
2023/05/03 12:33:09;;;;;;;5.78;1.80;;;14.80;56.50;;;;;;4994858;28;20061;-80
2023/05/03 12:35:35;;;;;;;3.22;1.48;;;14.90;56.80;;;;;;4994861;28;20046;-81
2023/05/03 12:38:03;;;;;;;4.63;1.88;;;15.10;58.60;;;;;;4994799;28;20046;-83
2023/05/03 12:40:29;;;;;;;3.97;1.45;;;15.10;58.60;;;;;;4978407;28;20505;-81
2023/05/03 12:42:57;;;;;;;2.55;1.50;;;14.90;57.50;;;;;;4978570;28;20042;-79
2023/05/03 12:45:25;;;;;;;3.92;1.48;;;15.00;56.60;;;;;;4994713;28;20042;-81
2023/05/03 12:47:52;;;;;;;4.25;2.45;;;15.20;57.30;;;;;;4994952;28;20459;-79
2023/05/03 12:50:19;;;;;;;2.15;1.60;;;15.50;56.30;;;;;;4994804;28;20046;-77
2023/05/03 12:52:44;;;;;;;3.83;1.63;;;15.70;56.50;;;;;;4978483;28;20137;-79
2023/05/03 12:55:10;;;;;;;8.63;2.10;;;15.70;55.10;;;;;;4994258;28;20570;-80
2023/05/03 12:57:36;;;;;;;3.22;1.83;;;15.50;55.20;;;;;;4978194;28;20124;-79